Time;durP1;ratioP1;P1;durP2;ratioP2;P2;SDS_P1;SDS_P2;PMS_P1;PMS_P2;Temp;Humidity;BMP_temperature;BMP_pressure;BME280_temperature;BME280_humidity;BME280_pressure;Samples;Min_cycle;Max_cycle;Signal;HPM_P1;HPM_P2
2021/06/11 00:00:01;;;;;;;11.00;2.80;;;16.60;91.20;;;;;;5025706;28;20037;-69
2021/06/11 00:02:28;;;;;;;8.52;2.80;;;16.60;91.40;;;;;;5026293;28;20225;-69
2021/06/11 00:04:53;;;;;;;14.65;2.80;;;16.50;91.30;;;;;;5026147;28;20021;-68
2021/06/11 00:07:19;;;;;;;9.20;2.40;;;16.50;91.40;;;;;;5025606;28;20041;-69
2021/06/11 00:09:45;;;;;;;3.33;2.35;;;16.50;91.30;;;;;;5025456;28;20030;-69
2021/06/11 00:12:13;;;;;;;8.57;3.17;;;16.40;91.40;;;;;;5026165;28;20036;-69
2021/06/11 00:14:38;;;;;;;7.78;2.22;;;16.40;91.60;;;;;;5024842;28;20398;-68
2021/06/11 00:17:04;;;;;;;6.70;2.53;;;16.30;91.50;;;;;;5025574;28;20041;-68
2021/06/11 00:19:30;;;;;;;7.65;2.50;;;16.30;91.40;;;;;;5025918;28;20482;-69
2021/06/11 00:21:55;;;;;;;6.38;2.95;;;16.30;91.50;;;;;;5026012;28;20536;-66
2021/06/11 00:24:21;;;;;;;4.50;2.42;;;16.30;91.40;;;;;;5025510;28;20036;-68
2021/06/11 00:26:47;;;;;;;12.25;2.65;;;16.30;91.30;;;;;;5025739;28;20680;-68
2021/06/11 00:29:12;;;;;;;;;;;16.30;91.40;;;;;;5026077;28;20033;-67
2021/06/11 00:31:40;;;;;;;12.18;2.80;;;16.30;91.80;;;;;;5025940;28;19905;-68
2021/06/11 00:34:05;;;;;;;6.68;3.30;;;16.20;91.70;;;;;;5025552;28;20452;-68
2021/06/11 00:36:31;;;;;;;4.72;2.67;;;16.20;91.80;;;;;;5025698;28;20033;-67
2021/06/11 00:38:57;;;;;;;7.75;2.38;;;16.10;92.10;;;;;;5025643;28;20079;-68
2021/06/11 00:41:22;;;;;;;;;;;16.10;91.80;;;;;;5025910;28;20037;-68
2021/06/11 00:43:48;;;;;;;3.70;2.03;;;16.10;91.40;;;;;;5028376;28;19909;-68
2021/06/11 00:46:13;;;;;;;5.60;2.13;;;16.10;91.20;;;;;;5029027;28;20045;-68
2021/06/11 00:48:39;;;;;;;6.90;2.20;;;16.10;91.60;;;;;;5029041;28;20509;-67
2021/06/11 00:51:05;;;;;;;;;;;16.10;91.80;;;;;;5029779;28;20028;-67
2021/06/11 00:53:30;;;;;;;7.85;2.28;;;16.00;92.10;;;;;;5028953;28;19992;-68
2021/06/11 00:55:56;;;;;;;5.78;2.65;;;16.00;91.90;;;;;;5029145;28;20460;-67
2021/06/11 00:58:22;;;;;;;;;;;16.00;92.00;;;;;;5029780;28;20836;-67
2021/06/11 01:00:48;;;;;;;6.80;2.30;;;15.90;91.90;;;;;;5028906;28;19905;-67
2021/06/11 01:03:15;;;;;;;7.50;2.15;;;15.80;92.20;;;;;;5027520;28;20033;-68
2021/06/11 01:05:42;;;;;;;17.92;2.88;;;15.80;92.40;;;;;;5028775;28;20505;-67
2021/06/11 01:08:10;;;;;;;5.78;2.30;;;15.80;92.50;;;;;;5027037;28;20152;-67
2021/06/11 01:10:36;;;;;;;4.43;2.30;;;15.80;92.60;;;;;;5028966;28;20026;-68
2021/06/11 01:13:02;;;;;;;;;;;15.80;92.50;;;;;;5028965;28;20087;-67
2021/06/11 01:15:28;;;;;;;3.08;2.15;;;15.80;92.50;;;;;;5028762;28;20400;-68
2021/06/11 01:17:54;;;;;;;5.07;2.53;;;15.70;92.50;;;;;;5028703;28;20502;-69
2021/06/11 01:20:21;;;;;;;4.95;3.17;;;15.70;92.40;;;;;;5028976;28;20025;-68
2021/06/11 01:22:57;;;;;;;8.13;2.40;;;15.70;92.50;;;;;;5028106;28;20105;-70
2021/06/11 01:25:50;;;;;;;4.60;2.30;;;15.70;92.70;;;;;;5028325;28;20886;-68
2021/06/11 01:28:16;;;;;;;8.73;2.63;;;15.70;92.80;;;;;;5028403;28;20285;-68
2021/06/11 01:30:43;;;;;;;6.20;2.70;;;15.70;92.80;;;;;;5028225;28;20029;-68
2021/06/11 01:33:10;;;;;;;7.40;3.25;;;15.70;92.60;;;;;;5028434;28;20034;-68
2021/06/11 01:35:57;;;;;;;8.82;2.50;;;15.70;92.50;;;;;;5028053;28;20069;-66
2021/06/11 01:38:26;;;;;;;6.10;2.40;;;15.70;92.30;;;;;;5027726;28;20513;-68
2021/06/11 01:40:54;;;;;;;9.43;2.55;;;15.70;92.30;;;;;;5028400;28;20629;-67
2021/06/11 01:43:24;;;;;;;11.35;2.17;;;15.70;92.20;;;;;;5028308;28;20359;-68
2021/06/11 01:45:50;;;;;;;7.22;2.85;;;15.70;92.20;;;;;;5026908;28;20029;-67
2021/06/11 01:48:16;;;;;;;;;;;15.70;92.30;;;;;;5028707;28;20086;-68
2021/06/11 01:50:44;;;;;;;12.82;2.00;;;15.70;92.50;;;;;;5027876;28;20290;-67
2021/06/11 01:53:12;;;;;;;7.47;3.00;;;15.60;92.30;;;;;;5027302;28;20041;-67
2021/06/11 01:55:39;;;;;;;4.63;2.30;;;15.70;92.10;;;;;;5021290;28;20564;-67
2021/06/11 01:58:06;;;;;;;6.50;2.35;;;15.70;92.20;;;;;;5027719;28;20060;-68
2021/06/11 02:00:33;;;;;;;5.28;2.42;;;15.70;92.10;;;;;;5028142;28;20502;-68
2021/06/11 02:03:00;;;;;;;7.10;2.47;;;15.70;92.20;;;;;;5026279;28;20086;-68
2021/06/11 02:05:26;;;;;;;8.13;2.58;;;15.70;92.20;;;;;;5027165;28;20057;-67
2021/06/11 02:07:52;;;;;;;5.50;2.03;;;15.70;92.20;;;;;;5027852;28;20517;-68
2021/06/11 02:10:18;;;;;;;;;;;15.70;92.30;;;;;;5028347;28;20059;-68
2021/06/11 02:12:45;;;;;;;4.32;2.13;;;15.70;92.40;;;;;;5027399;28;19916;-67
2021/06/11 02:15:12;;;;;;;3.40;2.08;;;15.60;92.30;;;;;;5027633;28;20022;-67
2021/06/11 02:17:47;;;;;;;3.15;1.83;;;15.60;92.30;;;;;;5027407;28;20506;-67
2021/06/11 02:20:15;;;;;;;4.65;2.00;;;15.60;92.60;;;;;;5027734;28;20033;-67
2021/06/11 02:22:42;;;;;;;7.18;2.42;;;15.60;92.50;;;;;;5027151;28;20111;-67
2021/06/11 02:25:09;;;;;;;4.03;2.15;;;15.70;92.50;;;;;;5026772;28;20036;-66
2021/06/11 02:27:37;;;;;;;4.65;2.35;;;15.70;92.20;;;;;;5027587;28;20437;-68
2021/06/11 02:30:16;;;;;;;12.02;2.85;;;15.70;92.30;;;;;;5027148;28;20026;-68
2021/06/11 02:32:42;;;;;;;7.60;2.05;;;15.70;92.10;;;;;;5026124;28;20030;-67
2021/06/11 02:35:12;;;;;;;3.28;2.00;;;15.70;92.10;;;;;;5026749;28;20091;-68
2021/06/11 02:37:39;;;;;;;4.78;1.90;;;15.60;92.00;;;;;;5027046;28;20050;-67
2021/06/11 02:40:06;;;;;;;4.75;2.08;;;15.70;91.80;;;;;;5026877;28;20033;-67
2021/06/11 02:42:32;;;;;;;3.45;1.90;;;15.70;91.80;;;;;;5027153;28;20513;-67
2021/06/11 02:45:03;;;;;;;8.90;2.63;;;15.70;92.00;;;;;;5027011;28;20025;-67
2021/06/11 02:47:44;;;;;;;3.90;2.03;;;15.70;91.70;;;;;;5025683;28;20083;-66
2021/06/11 02:50:17;;;;;;;8.88;2.10;;;15.70;91.60;;;;;;5027383;28;20030;-68
2021/06/11 02:52:49;;;;;;;4.40;2.65;;;15.70;91.90;;;;;;5026720;28;20029;-68
2021/06/11 02:55:16;;;;;;;4.28;1.70;;;15.70;91.80;;;;;;5026902;28;20029;-67
2021/06/11 02:57:46;;;;;;;2.85;1.90;;;15.70;91.70;;;;;;5027083;28;20033;-68
2021/06/11 03:00:12;;;;;;;4.43;1.98;;;15.70;91.40;;;;;;5026572;28;20025;-67
2021/06/11 03:02:54;;;;;;;3.78;2.22;;;15.70;91.50;;;;;;5027114;28;20155;-67
2021/06/11 03:05:23;;;;;;;5.07;1.88;;;15.70;91.50;;;;;;5026000;28;20022;-67
2021/06/11 03:07:54;;;;;;;3.83;1.90;;;15.70;91.50;;;;;;5025502;28;20499;-67
2021/06/11 03:10:26;;;;;;;4.88;2.05;;;15.70;91.50;;;;;;5027038;28;20104;-68
2021/06/11 03:12:52;;;;;;;6.38;2.28;;;15.70;91.80;;;;;;5025561;28;20060;-67
2021/06/11 03:15:18;;;;;;;18.42;2.40;;;15.80;91.90;;;;;;5026531;28;20096;-68
2021/06/11 03:17:45;;;;;;;;;;;15.80;91.90;;;;;;5025358;28;20513;-68
2021/06/11 03:20:13;;;;;;;4.75;2.17;;;15.80;91.90;;;;;;5025561;28;19909;-68
2021/06/11 03:23:03;;;;;;;6.38;2.03;;;15.80;91.90;;;;;;5026286;28;20041;-67
2021/06/11 03:25:35;;;;;;;8.15;2.15;;;15.90;92.00;;;;;;5026368;28;20581;-68
2021/06/11 03:28:12;;;;;;;5.28;2.38;;;15.90;91.80;;;;;;5025202;28;20033;-67
2021/06/11 03:30:43;;;;;;;5.60;2.20;;;16.00;91.80;;;;;;5026295;28;20477;-67
2021/06/11 03:33:13;;;;;;;11.77;2.55;;;16.10;91.60;;;;;;5026423;28;20437;-68
2021/06/11 03:35:45;;;;;;;5.82;2.00;;;16.10;91.10;;;;;;5025805;28;20525;-67
2021/06/11 03:38:19;;;;;;;4.72;1.70;;;16.10;91.00;;;;;;5025776;28;20029;-68
2021/06/11 03:40:47;;;;;;;6.20;1.90;;;16.20;90.90;;;;;;5025110;28;20504;-68
2021/06/11 03:43:14;;;;;;;6.75;1.88;;;16.20;90.80;;;;;;5026160;28;20083;-67
2021/06/11 03:45:41;;;;;;;5.45;1.80;;;16.30;90.80;;;;;;5026144;28;20565;-68
2021/06/11 03:48:10;;;;;;;7.47;2.05;;;16.30;90.90;;;;;;5026211;28;20339;-67
2021/06/11 03:50:38;;;;;;;12.85;2.35;;;16.40;90.70;;;;;;5024544;28;20033;-67
2021/06/11 03:53:05;;;;;;;6.72;2.25;;;16.40;90.50;;;;;;5025467;28;20080;-66
2021/06/11 03:55:39;;;;;;;13.68;2.00;;;16.50;90.30;;;;;;5025908;28;20371;-68
2021/06/11 03:58:13;;;;;;;5.22;1.70;;;16.50;90.10;;;;;;5026457;28;20494;-67
2021/06/11 04:00:42;;;;;;;2.90;1.75;;;16.60;89.70;;;;;;5026297;28;20468;-68
2021/06/11 04:03:08;;;;;;;4.80;2.20;;;16.80;89.40;;;;;;5025951;28;20033;-67
2021/06/11 04:05:34;;;;;;;4.90;1.60;;;17.20;88.00;;;;;;5024436;28;20017;-67
2021/06/11 04:08:02;;;;;;;6.72;1.95;;;17.60;87.70;;;;;;5026159;28;20025;-68
2021/06/11 04:10:29;;;;;;;2.60;1.80;;;17.90;86.80;;;;;;5026213;28;20332;-67
2021/06/11 04:13:01;;;;;;;2.60;1.95;;;18.20;85.30;;;;;;5026142;28;20025;-68
2021/06/11 04:15:31;;;;;;;4.13;2.20;;;18.30;85.10;;;;;;5025398;28;20034;-67
2021/06/11 04:18:03;;;;;;;3.55;1.58;;;18.30;85.00;;;;;;5028668;28;20068;-67
2021/06/11 04:20:31;;;;;;;7.00;2.38;;;18.30;83.80;;;;;;5029105;28;20021;-66
2021/06/11 04:23:00;;;;;;;7.57;2.30;;;18.30;83.10;;;;;;5030027;28;20025;-68
2021/06/11 04:25:34;;;;;;;6.90;1.90;;;18.40;82.50;;;;;;5029079;28;20121;-67
2021/06/11 04:28:02;;;;;;;6.40;2.60;;;18.40;82.00;;;;;;5029399;28;20041;-67
2021/06/11 04:30:28;;;;;;;6.40;1.80;;;18.50;82.20;;;;;;5029703;28;20053;-67
2021/06/11 04:32:54;;;;;;;8.15;1.90;;;18.50;82.10;;;;;;5029400;28;20029;-67
2021/06/11 04:35:22;;;;;;;8.20;2.05;;;18.60;82.70;;;;;;5028905;28;20124;-66
2021/06/11 04:37:47;;;;;;;3.70;1.35;;;18.80;81.50;;;;;;5029724;28;20075;-67
2021/06/11 04:40:14;;;;;;;7.07;1.75;;;19.00;80.20;;;;;;5029648;28;20116;-67
2021/06/11 04:42:39;;;;;;;14.02;1.90;;;19.10;79.20;;;;;;5029700;28;20147;-67
2021/06/11 04:45:05;;;;;;;5.72;1.63;;;19.20;78.00;;;;;;5028341;28;20556;-66
2021/06/11 04:47:31;;;;;;;3.60;2.03;;;19.40;78.40;;;;;;5029383;28;20340;-69
2021/06/11 04:49:57;;;;;;;18.13;2.25;;;19.60;79.00;;;;;;5029119;28;20517;-67
2021/06/11 04:52:23;;;;;;;3.67;1.60;;;19.70;78.50;;;;;;5027614;28;20044;-66
2021/06/11 04:54:48;;;;;;;4.57;1.42;;;19.70;77.40;;;;;;5029282;28;20091;-69
2021/06/11 04:57:15;;;;;;;8.73;1.83;;;19.80;76.70;;;;;;5029091;28;20112;-68
2021/06/11 04:59:41;;;;;;;2.22;1.40;;;19.90;76.10;;;;;;5027401;28;20025;-68
2021/06/11 05:02:07;;;;;;;11.32;2.20;;;20.00;76.30;;;;;;5029214;28;20041;-68
2021/06/11 05:04:32;;;;;;;2.97;1.33;;;20.10;75.20;;;;;;5028952;28;20032;-67
2021/06/11 05:06:59;;;;;;;2.97;1.30;;;20.20;74.50;;;;;;5028605;28;20052;-68
2021/06/11 05:09:25;;;;;;;2.45;1.50;;;20.30;74.70;;;;;;5028864;28;20032;-68
2021/06/11 05:11:51;;;;;;;7.18;1.45;;;20.40;73.60;;;;;;5028707;28;20030;-68
2021/06/11 05:14:16;;;;;;;4.15;1.50;;;20.50;74.30;;;;;;5028634;28;20029;-67
2021/06/11 05:16:42;;;;;;;3.58;1.70;;;20.60;76.00;;;;;;5028911;28;20449;-68
2021/06/11 05:19:08;;;;;;;5.15;1.60;;;20.80;78.40;;;;;;5026857;28;20040;-68
2021/06/11 05:21:34;;;;;;;4.97;1.42;;;20.80;76.60;;;;;;5028734;28;20036;-68
2021/06/11 05:24:00;;;;;;;3.53;1.23;;;21.00;74.90;;;;;;5028458;28;20032;-68
2021/06/11 05:26:25;;;;;;;2.72;1.40;;;21.10;73.20;;;;;;5028801;28;20036;-67
2021/06/11 05:28:51;;;;;;;3.78;1.17;;;21.30;73.40;;;;;;5027576;28;20025;-67
2021/06/11 05:31:17;;;;;;;4.47;1.60;;;21.50;73.10;;;;;;5028138;28;20116;-67
2021/06/11 05:33:42;;;;;;;16.67;6.93;;;21.70;72.30;;;;;;5028758;28;20486;-68
2021/06/11 05:36:08;;;;;;;9.32;5.18;;;21.80;70.10;;;;;;5028078;28;20052;-68
2021/06/11 05:38:34;;;;;;;9.45;4.47;;;21.90;67.90;;;;;;5028611;28;20064;-69
2021/06/11 05:41:02;;;;;;;8.38;2.92;;;22.10;68.10;;;;;;5028241;28;20034;-68
2021/06/11 05:43:28;;;;;;;9.55;2.47;;;22.30;67.50;;;;;;5027841;28;20013;-69
2021/06/11 05:45:53;;;;;;;5.25;2.38;;;22.50;66.50;;;;;;5028307;28;20038;-68
2021/06/11 05:48:19;;;;;;;5.97;1.17;;;22.90;65.60;;;;;;5028198;28;20037;-68
2021/06/11 05:50:45;;;;;;;4.15;1.60;;;23.10;64.30;;;;;;5027899;28;20109;-69
2021/06/11 05:53:10;;;;;;;3.47;1.40;;;23.30;63.40;;;;;;5028185;28;20188;-68
2021/06/11 05:55:36;;;;;;;5.07;1.25;;;23.30;62.90;;;;;;5028520;28;20033;-68
2021/06/11 05:58:02;;;;;;;7.85;1.48;;;23.60;63.30;;;;;;5027662;28;20502;-68
2021/06/11 06:00:28;;;;;;;3.85;1.50;;;24.90;59.00;;;;;;5027445;28;20032;-69
2021/06/11 06:02:54;;;;;;;4.28;1.10;;;26.80;52.90;;;;;;5027034;28;20044;-69
2021/06/11 06:05:20;;;;;;;2.67;1.23;;;28.50;47.50;;;;;;5027124;28;20022;-70
2021/06/11 06:07:45;;;;;;;2.22;1.02;;;29.80;42.10;;;;;;5026876;28;20175;-70
2021/06/11 06:10:12;;;;;;;2.53;1.00;;;30.60;36.70;;;;;;5027475;28;20072;-69
2021/06/11 06:12:38;;;;;;;7.03;1.42;;;31.40;36.40;;;;;;5027366;28;20397;-68
2021/06/11 06:15:05;;;;;;;2.85;0.98;;;32.60;34.80;;;;;;5027426;28;20018;-68
2021/06/11 06:17:34;;;;;;;4.78;1.13;;;33.30;31.10;;;;;;5027226;28;20516;-69
2021/06/11 06:20:04;;;;;;;3.33;1.00;;;33.90;31.50;;;;;;5026578;28;20612;-69
2021/06/11 06:22:30;;;;;;;4.20;1.02;;;33.70;30.30;;;;;;5026876;28;20036;-69
2021/06/11 06:24:56;;;;;;;2.85;1.23;;;33.70;30.40;;;;;;5027433;28;20397;-68
2021/06/11 06:27:21;;;;;;;3.45;1.15;;;33.80;30.20;;;;;;5027169;28;20517;-69
2021/06/11 06:29:47;;;;;;;4.50;1.00;;;33.90;29.90;;;;;;5027757;28;20029;-68
2021/06/11 06:32:12;;;;;;;3.35;1.23;;;33.70;30.00;;;;;;5026455;28;20057;-69
2021/06/11 06:34:38;;;;;;;2.60;1.00;;;34.60;29.40;;;;;;5026582;28;20136;-69
2021/06/11 06:37:07;;;;;;;4.70;1.05;;;34.40;28.70;;;;;;5027682;28;20115;-68
2021/06/11 06:39:33;;;;;;;2.33;1.05;;;34.40;29.00;;;;;;5027397;28;20576;-68
2021/06/11 06:41:59;;;;;;;3.00;0.90;;;34.10;28.80;;;;;;5026044;28;20033;-69
2021/06/11 06:44:24;;;;;;;2.05;1.10;;;33.40;29.80;;;;;;5027307;28;20025;-71
2021/06/11 06:46:50;;;;;;;1.88;1.10;;;33.60;29.00;;;;;;5025644;28;20046;-69
2021/06/11 06:49:16;;;;;;;1.75;0.75;;;33.40;29.50;;;;;;5026592;28;20052;-69
2021/06/11 06:51:41;;;;;;;4.40;1.15;;;32.90;30.50;;;;;;5027447;28;20787;-68
2021/06/11 06:54:07;;;;;;;3.85;1.00;;;32.80;29.90;;;;;;5026861;28;20017;-70
2021/06/11 06:56:33;;;;;;;8.07;1.13;;;32.70;29.60;;;;;;5027198;28;20041;-68
2021/06/11 06:58:59;;;;;;;4.60;0.80;;;31.50;32.10;;;;;;5025809;28;20498;-68
2021/06/11 07:01:26;;;;;;;11.02;1.42;;;31.20;32.40;;;;;;5027031;28;20202;-68
2021/06/11 07:03:59;;;;;;;8.05;1.48;;;31.40;33.00;;;;;;5026860;28;20568;-68
2021/06/11 07:06:25;;;;;;;8.85;1.27;;;31.20;32.40;;;;;;5025208;28;20036;-68
2021/06/11 07:08:52;;;;;;;3.70;0.88;;;30.80;33.80;;;;;;5026865;28;20108;-69
2021/06/11 07:11:17;;;;;;;2.25;1.10;;;30.40;33.90;;;;;;5026944;28;20025;-68
2021/06/11 07:13:43;;;;;;;1.75;0.80;;;29.90;34.20;;;;;;5027148;28;20087;-68
2021/06/11 07:16:09;;;;;;;2.17;0.90;;;29.20;36.00;;;;;;5026990;28;20482;-68
2021/06/11 07:18:36;;;;;;;3.03;0.95;;;28.90;36.10;;;;;;5026697;28;20037;-68
2021/06/11 07:21:03;;;;;;;2.60;0.98;;;28.50;36.90;;;;;;5025428;28;20021;-68
2021/06/11 07:23:32;;;;;;;3.90;0.82;;;28.30;38.50;;;;;;5025288;28;20025;-69
2021/06/11 07:25:58;;;;;;;3.33;0.90;;;27.80;38.40;;;;;;5026798;28;20075;-68
2021/06/11 07:28:26;;;;;;;5.15;1.98;;;27.90;38.40;;;;;;5026592;28;20048;-68
2021/06/11 07:30:53;;;;;;;1.80;0.75;;;27.80;36.10;;;;;;5027044;28;20032;-68
2021/06/11 07:33:19;;;;;;;12.02;1.10;;;27.60;37.10;;;;;;5026582;28;20116;-69
2021/06/11 07:35:44;;;;;;;6.18;1.00;;;27.50;38.00;;;;;;5026249;28;20125;-68
2021/06/11 07:38:10;;;;;;;3.75;0.90;;;27.70;37.80;;;;;;5026899;28;20117;-68
2021/06/11 07:40:35;;;;;;;3.05;0.93;;;27.90;37.60;;;;;;5026510;28;20092;-69
2021/06/11 07:43:03;;;;;;;5.40;1.60;;;28.00;37.90;;;;;;5026679;28;20037;-67
2021/06/11 07:45:29;;;;;;;6.63;1.15;;;28.40;37.40;;;;;;5026246;28;20561;-68
2021/06/11 07:47:55;;;;;;;2.78;1.00;;;29.10;34.90;;;;;;5026451;28;20102;-68
2021/06/11 07:50:21;;;;;;;10.30;1.25;;;29.80;36.30;;;;;;5024708;28;20429;-68
2021/06/11 07:52:48;;;;;;;4.47;0.90;;;30.60;35.90;;;;;;5031610;28;20057;-69
2021/06/11 07:55:14;;;;;;;3.60;1.48;;;31.40;35.60;;;;;;5033096;28;20021;-70
2021/06/11 07:57:40;;;;;;;4.65;1.02;;;32.30;31.10;;;;;;5032805;28;20029;-69
2021/06/11 08:00:07;;;;;;;5.53;1.05;;;32.20;29.50;;;;;;5031665;28;20033;-68
2021/06/11 08:02:32;;;;;;;7.07;1.45;;;31.30;31.10;;;;;;5032986;28;20036;-69
2021/06/11 08:04:58;;;;;;;2.95;0.80;;;30.00;33.10;;;;;;5032563;28;20841;-69
2021/06/11 08:07:29;;;;;;;2.08;0.60;;;29.20;34.00;;;;;;5033063;28;20037;-69
2021/06/11 08:09:56;;;;;;;4.50;0.80;;;28.40;34.70;;;;;;5032777;28;20113;-68
2021/06/11 08:12:22;;;;;;;3.60;1.17;;;27.60;36.60;;;;;;5033156;28;20041;-68
2021/06/11 08:14:48;;;;;;;2.42;0.82;;;27.10;38.30;;;;;;5033163;28;20026;-68
2021/06/11 08:17:14;;;;;;;3.05;0.82;;;26.60;40.10;;;;;;5032527;28;20091;-67
2021/06/11 08:19:39;;;;;;;2.25;0.93;;;26.20;41.00;;;;;;5032818;28;20029;-67
2021/06/11 08:22:05;;;;;;;8.15;1.30;;;26.10;40.80;;;;;;5032687;28;20056;-67
2021/06/11 08:24:31;;;;;;;1.85;0.90;;;25.90;41.00;;;;;;5032553;28;20587;-67
2021/06/11 08:26:57;;;;;;;1.98;1.10;;;26.10;41.60;;;;;;5033043;28;20083;-68
2021/06/11 08:29:24;;;;;;;2.28;1.10;;;26.60;40.00;;;;;;5032727;28;20062;-68
2021/06/11 08:31:51;;;;;;;2.28;0.75;;;27.60;40.10;;;;;;5033077;28;20095;-68
2021/06/11 08:34:17;;;;;;;1.77;1.15;;;28.80;37.00;;;;;;5032440;28;20072;-69
2021/06/11 08:36:43;;;;;;;3.20;1.40;;;29.60;34.80;;;;;;5032510;28;20112;-68
2021/06/11 08:39:09;;;;;;;1.52;0.80;;;30.10;34.00;;;;;;5032871;28;20029;-69
2021/06/11 08:41:35;;;;;;;17.23;5.65;;;30.20;34.30;;;;;;5032453;28;20028;-69
2021/06/11 08:44:00;;;;;;;26.60;8.52;;;30.60;33.10;;;;;;5032848;28;20071;-69
2021/06/11 08:46:27;;;;;;;12.35;4.55;;;31.00;33.90;;;;;;5031087;28;20061;-68
2021/06/11 08:48:54;;;;;;;2.17;0.88;;;31.10;33.70;;;;;;5031044;28;20029;-68
2021/06/11 08:51:20;;;;;;;2.83;0.80;;;31.50;32.60;;;;;;5032320;28;20025;-69
2021/06/11 08:53:46;;;;;;;2.20;0.80;;;31.80;32.20;;;;;;5031389;28;20144;-68
2021/06/11 08:56:12;;;;;;;2.25;0.70;;;31.40;31.20;;;;;;5032564;28;20079;-69
2021/06/11 08:58:41;;;;;;;4.50;0.90;;;30.80;30.80;;;;;;5032621;28;20025;-68
2021/06/11 09:01:07;;;;;;;6.90;0.93;;;29.90;31.60;;;;;;5031951;28;20034;-68
2021/06/11 09:03:47;;;;;;;11.93;4.68;;;29.20;34.10;;;;;;5029219;28;20033;-68
2021/06/11 09:06:13;;;;;;;1.23;0.80;;;29.30;34.80;;;;;;5029367;28;20056;-69
2021/06/11 09:08:41;;;;;;;2.85;0.75;;;30.10;35.00;;;;;;5029049;28;20025;-68
2021/06/11 09:11:34;;;;;;;1.67;1.10;;;30.90;32.90;;;;;;5029258;28;20108;-69
2021/06/11 09:14:05;;;;;;;3.33;1.00;;;31.10;30.60;;;;;;5026764;28;20030;-68
2021/06/11 09:16:41;;;;;;;1.35;0.70;;;31.10;31.50;;;;;;5029255;28;20033;-69
2021/06/11 09:19:07;;;;;;;5.13;0.80;;;31.50;30.30;;;;;;5028571;28;20547;-68
2021/06/11 09:21:45;;;;;;;4.20;0.88;;;31.60;32.20;;;;;;5029327;28;20025;-69
2021/06/11 09:24:22;;;;;;;4.22;0.93;;;31.70;30.00;;;;;;5029091;28;20033;-69
2021/06/11 09:26:56;;;;;;;2.83;1.00;;;32.00;29.70;;;;;;5027605;28;20108;-69
2021/06/11 09:29:23;;;;;;;2.05;1.27;;;32.10;31.20;;;;;;5028689;28;20108;-69
2021/06/11 09:31:49;;;;;;;9.40;0.80;;;31.70;32.10;;;;;;5028897;28;20596;-69
2021/06/11 09:34:27;;;;;;;2.33;0.68;;;31.60;31.20;;;;;;5028134;28;20045;-69
2021/06/11 09:37:01;;;;;;;1.77;0.77;;;31.40;31.60;;;;;;5028644;28;20098;-69
2021/06/11 09:39:48;;;;;;;2.22;0.77;;;30.80;31.40;;;;;;5028536;28;20032;-68
2021/06/11 09:42:17;;;;;;;2.80;0.95;;;30.50;32.80;;;;;;5028559;28;20029;-69
2021/06/11 09:44:58;;;;;;;3.17;1.13;;;30.40;32.20;;;;;;5028240;28;20034;-68
2021/06/11 09:47:36;;;;;;;1.77;0.80;;;30.20;32.50;;;;;;5027673;28;20069;-68
2021/06/11 09:50:11;;;;;;;1.20;0.77;;;30.50;32.50;;;;;;5028202;28;20867;-68
2021/06/11 09:52:59;;;;;;;3.10;1.10;;;31.10;30.30;;;;;;5028569;28;20481;-68
2021/06/11 09:55:40;;;;;;;2.05;0.77;;;31.30;31.60;;;;;;5027894;28;20037;-69
2021/06/11 09:58:24;;;;;;;3.63;0.73;;;31.30;31.20;;;;;;5027962;28;20022;-68
2021/06/11 10:00:54;;;;;;;2.78;1.30;;;30.90;29.90;;;;;;5026681;28;20060;-68
2021/06/11 10:03:30;;;;;;;3.20;0.90;;;30.20;33.20;;;;;;5027615;28;20033;-67
2021/06/11 10:05:58;;;;;;;3.80;0.88;;;29.40;36.20;;;;;;5026843;28;20033;-67
2021/06/11 10:08:25;;;;;;;7.35;0.98;;;28.40;37.80;;;;;;5026974;28;20041;-68
2021/06/11 10:10:53;;;;;;;2.17;1.17;;;27.50;40.40;;;;;;5028140;28;20368;-69
2021/06/11 10:13:20;;;;;;;2.55;1.42;;;26.70;41.30;;;;;;5027413;28;20026;-67
2021/06/11 10:15:48;;;;;;;11.05;1.23;;;26.10;43.30;;;;;;5027721;28;20060;-67
2021/06/11 10:18:14;;;;;;;4.97;1.30;;;25.70;46.10;;;;;;5026572;28;20037;-67
2021/06/11 10:20:41;;;;;;;1.80;0.65;;;25.40;46.90;;;;;;5026486;28;20556;-68
2021/06/11 10:23:10;;;;;;;2.33;0.82;;;25.40;45.80;;;;;;5027579;28;20072;-67
2021/06/11 10:25:40;;;;;;;1.33;0.98;;;25.20;45.20;;;;;;5027327;28;20486;-68
2021/06/11 10:28:07;;;;;;;4.28;0.68;;;25.10;46.00;;;;;;5027628;28;20037;-68
2021/06/11 10:30:33;;;;;;;5.72;0.95;;;25.00;45.70;;;;;;5027725;28;20079;-68
2021/06/11 10:32:59;;;;;;;1.58;0.80;;;24.90;46.00;;;;;;5026754;28;20044;-68
2021/06/11 10:35:46;;;;;;;7.03;1.30;;;25.20;46.20;;;;;;5027306;28;20052;-68
2021/06/11 10:38:33;;;;;;;3.10;0.98;;;25.60;47.60;;;;;;5027130;28;20059;-68
2021/06/11 10:41:02;;;;;;;2.80;0.80;;;25.60;46.30;;;;;;5027202;28;20584;-68
2021/06/11 10:43:35;;;;;;;2.50;1.08;;;25.70;45.70;;;;;;5027239;28;20379;-68
2021/06/11 10:46:01;;;;;;;3.80;1.70;;;25.60;46.10;;;;;;5026633;28;20033;-68
2021/06/11 10:48:56;;;;;;;1.33;0.75;;;25.50;47.40;;;;;;5026669;28;20041;-68
2021/06/11 10:51:45;;;;;;;2.15;0.90;;;25.60;47.90;;;;;;5026222;28;20024;-68
2021/06/11 10:54:20;;;;;;;1.60;0.90;;;25.70;47.00;;;;;;5025777;28;20037;-68
2021/06/11 10:56:58;;;;;;;2.17;0.95;;;25.70;46.30;;;;;;5026008;28;20104;-68
2021/06/11 10:59:38;;;;;;;2.03;0.80;;;25.90;47.50;;;;;;5025869;28;20037;-67
2021/06/11 11:02:05;;;;;;;1.20;0.63;;;25.90;46.70;;;;;;5025130;28;20064;-68
2021/06/11 11:04:36;;;;;;;1.92;0.80;;;26.00;46.30;;;;;;5025981;28;20058;-69
2021/06/11 11:07:24;;;;;;;3.88;1.08;;;26.10;46.30;;;;;;5037624;28;20045;-68
2021/06/11 11:09:54;;;;;;;2.28;1.05;;;26.10;46.10;;;;;;5045014;28;20108;-67
2021/06/11 11:12:26;;;;;;;1.83;0.80;;;26.10;46.10;;;;;;5043602;28;20107;-67
2021/06/11 11:14:52;;;;;;;1.67;0.77;;;26.10;46.20;;;;;;5044127;28;20025;-67
2021/06/11 11:17:18;;;;;;;1.60;0.70;;;26.10;45.80;;;;;;5042218;28;20029;-67
2021/06/11 11:20:07;;;;;;;1.15;0.75;;;26.10;45.20;;;;;;5043706;28;20086;-68
2021/06/11 11:22:38;;;;;;;2.15;1.15;;;26.10;46.00;;;;;;5043389;28;20021;-68
2021/06/11 11:25:07;;;;;;;1.40;0.70;;;26.00;46.00;;;;;;5043863;28;20446;-66
2021/06/11 11:27:33;;;;;;;1.65;0.70;;;26.00;45.60;;;;;;5042027;28;20075;-68
2021/06/11 11:29:59;;;;;;;1.45;0.60;;;26.00;45.30;;;;;;5043189;28;20025;-67
2021/06/11 11:32:27;;;;;;;1.83;0.60;;;26.10;45.90;;;;;;5042825;28;20083;-69
2021/06/11 11:34:53;;;;;;;1.20;0.60;;;26.10;44.60;;;;;;5043303;28;20076;-68
2021/06/11 11:37:19;;;;;;;0.90;0.60;;;26.10;43.90;;;;;;5042969;28;20029;-67
2021/06/11 11:39:46;;;;;;;1.40;0.70;;;26.20;44.60;;;;;;5043506;28;20035;-68
2021/06/11 11:42:12;;;;;;;5.32;0.80;;;26.40;44.20;;;;;;5043170;28;20099;-68
2021/06/11 11:44:39;;;;;;;1.65;0.80;;;26.40;42.30;;;;;;5042936;28;20116;-67
2021/06/11 11:47:05;;;;;;;2.67;0.80;;;26.50;43.10;;;;;;5043128;28;20051;-68
2021/06/11 11:49:31;;;;;;;3.60;1.20;;;26.50;42.50;;;;;;5043437;28;20029;-68
2021/06/11 11:51:57;;;;;;;2.03;0.80;;;26.70;42.90;;;;;;5041634;28;20060;-67
2021/06/11 11:54:23;;;;;;;4.63;1.02;;;26.80;41.10;;;;;;5043090;28;20079;-68
2021/06/11 11:56:48;;;;;;;2.30;0.98;;;26.90;42.10;;;;;;5043547;28;20032;-68
2021/06/11 11:59:14;;;;;;;1.63;0.90;;;27.00;41.50;;;;;;5043136;28;20040;-68
2021/06/11 12:01:44;;;;;;;3.58;0.80;;;27.00;41.30;;;;;;5041558;28;20041;-68
2021/06/11 12:04:11;;;;;;;5.15;0.75;;;27.10;39.60;;;;;;5042981;28;20126;-68
2021/06/11 12:06:40;;;;;;;1.50;0.82;;;27.10;40.70;;;;;;5043004;28;20079;-69
2021/06/11 12:09:07;;;;;;;2.22;1.02;;;27.10;40.10;;;;;;5042650;28;20064;-68
2021/06/11 12:11:33;;;;;;;2.30;0.70;;;27.10;41.20;;;;;;5041303;28;20493;-68
2021/06/11 12:13:59;;;;;;;1.02;0.60;;;27.10;39.40;;;;;;5042711;28;20037;-68
2021/06/11 12:16:24;;;;;;;2.20;1.02;;;27.10;39.40;;;;;;5041682;28;20039;-69
2021/06/11 12:18:50;;;;;;;2.72;1.00;;;27.20;40.40;;;;;;5042745;28;20029;-68
2021/06/11 12:21:16;;;;;;;2.53;0.88;;;27.20;40.30;;;;;;5042145;28;20106;-68
2021/06/11 12:23:42;;;;;;;1.33;1.00;;;27.20;40.70;;;;;;5042582;28;20028;-68
2021/06/11 12:26:08;;;;;;;4.25;1.25;;;27.20;39.20;;;;;;5041473;28;20040;-68
2021/06/11 12:28:33;;;;;;;4.00;0.90;;;27.30;40.60;;;;;;5043546;28;20120;-69
2021/06/11 12:31:01;;;;;;;1.83;0.70;;;27.20;40.60;;;;;;5044568;28;20025;-67
2021/06/11 12:33:27;;;;;;;4.97;0.77;;;27.20;39.80;;;;;;5026332;28;20036;-68
2021/06/11 12:35:53;;;;;;;3.15;1.20;;;27.30;40.10;;;;;;5036881;28;20068;-68
2021/06/11 12:38:19;;;;;;;2.40;1.00;;;27.20;39.50;;;;;;5047263;28;20033;-68
2021/06/11 12:40:48;;;;;;;1.95;1.00;;;27.30;40.30;;;;;;5049851;28;20028;-68
2021/06/11 12:43:19;;;;;;;4.60;1.58;;;27.30;39.10;;;;;;5049188;28;20039;-68
2021/06/11 12:45:46;;;;;;;3.28;1.13;;;27.30;39.80;;;;;;5048966;28;20032;-68
2021/06/11 12:48:12;;;;;;;3.20;1.10;;;27.20;40.00;;;;;;5049195;28;20033;-69
2021/06/11 12:50:40;;;;;;;9.43;1.77;;;27.30;40.30;;;;;;5049090;28;20442;-69
2021/06/11 12:53:06;;;;;;;1.63;0.90;;;27.30;40.80;;;;;;5048272;28;20040;-69